Time;durP1;ratioP1;P1;durP2;ratioP2;P2;SDS_P1;SDS_P2;PMS_P1;PMS_P2;Temp;Humidity;BMP_temperature;BMP_pressure;BME280_temperature;BME280_humidity;BME280_pressure;Samples;Min_cycle;Max_cycle;Signal;HPM_P1;HPM_P2
2023/10/11 00:01:27;;;;;;;235.17;80.33;;;;;;;;;;4972372;28;20851;-47
2023/10/11 00:03:53;;;;;;;236.43;83.07;;;;;;;;;;4972143;28;20950;-47
2023/10/11 00:06:19;;;;;;;240.57;88.23;;;;;;;;;;4972153;28;20944;-47
2023/10/11 00:08:45;;;;;;;236.13;83.67;;;;;;;;;;4964485;28;20412;-48
2023/10/11 00:11:11;;;;;;;236.37;83.83;;;;;;;;;;4976012;28;21006;-47
2023/10/11 00:13:37;;;;;;;238.60;85.77;;;;;;;;;;4975468;28;20435;-47
2023/10/11 00:16:16;;;;;;;240.10;88.53;;;;;;;;;;4975861;28;20462;-49
2023/10/11 00:18:44;;;;;;;238.57;85.27;;;;;;;;;;4976044;28;20742;-47
2023/10/11 00:21:12;;;;;;;237.07;85.67;;;;;;;;;;4975809;28;20465;-46
2023/10/11 00:23:42;;;;;;;237.87;84.63;;;;;;;;;;4975307;28;20435;-48
2023/10/11 00:26:08;;;;;;;238.77;84.63;;;;;;;;;;4975756;28;20509;-47
2023/10/11 00:28:37;;;;;;;240.13;87.23;;;;;;;;;;4975640;28;20416;-46
2023/10/11 00:31:04;;;;;;;237.87;86.27;;;;;;;;;;4975863;28;20410;-46
2023/10/11 00:33:33;;;;;;;239.00;88.27;;;;;;;;;;4975171;28;20531;-48
2023/10/11 00:36:02;;;;;;;236.47;82.73;;;;;;;;;;4975592;28;20424;-48
2023/10/11 00:38:28;;;;;;;237.57;84.03;;;;;;;;;;4975468;28;20525;-47
2023/10/11 00:41:07;;;;;;;238.17;86.13;;;;;;;;;;4975804;28;20490;-47
2023/10/11 00:43:34;;;;;;;239.13;86.13;;;;;;;;;;4975055;28;20843;-48
2023/10/11 00:46:01;;;;;;;241.53;85.67;;;;;;;;;;4975154;28;20524;-46
2023/10/11 00:48:29;;;;;;;235.57;82.73;;;;;;;;;;4975455;28;20427;-46
2023/10/11 00:50:56;;;;;;;239.47;86.87;;;;;;;;;;4975535;28;20423;-47
2023/10/11 00:53:23;;;;;;;237.23;83.83;;;;;;;;;;4974935;28;20925;-46
2023/10/11 00:55:55;;;;;;;239.47;84.80;;;;;;;;;;4975352;28;20500;-47
2023/10/11 00:58:21;;;;;;;239.63;85.07;;;;;;;;;;4975118;28;20412;-47
2023/10/11 01:00:48;;;;;;;244.40;89.67;;;;;;;;;;4974700;28;20412;-46
2023/10/11 01:03:17;;;;;;;237.30;81.37;;;;;;;;;;4974491;28;21005;-47
2023/10/11 01:05:48;;;;;;;241.27;85.63;;;;;;;;;;4974326;28;20473;-48
2023/10/11 01:08:14;;;;;;;236.97;81.40;;;;;;;;;;4974174;28;20457;-47
2023/10/11 01:10:45;;;;;;;235.97;81.30;;;;;;;;;;4974818;28;20495;-47
2023/10/11 01:13:12;;;;;;;234.57;77.73;;;;;;;;;;4974510;28;20488;-47
2023/10/11 01:15:38;;;;;;;236.43;80.80;;;;;;;;;;4974734;28;20506;-47
2023/10/11 01:18:04;;;;;;;236.40;82.50;;;;;;;;;;4974923;28;20494;-46
2023/10/11 01:20:31;;;;;;;236.70;82.97;;;;;;;;;;4974586;28;20418;-46
2023/10/11 01:22:57;;;;;;;248.77;93.33;;;;;;;;;;4974030;28;20409;-46
2023/10/11 01:25:23;;;;;;;239.33;86.70;;;;;;;;;;4974575;28;20418;-47
2023/10/11 01:27:49;;;;;;;240.07;86.03;;;;;;;;;;4974522;28;20417;-48
2023/10/11 01:30:15;;;;;;;235.40;80.27;;;;;;;;;;4974749;28;20783;-46
2023/10/11 01:32:41;;;;;;;237.53;82.73;;;;;;;;;;4974323;28;20449;-48
2023/10/11 01:35:41;;;;;;;236.27;81.20;;;;;;;;;;4974693;28;20948;-46
2023/10/11 01:38:04;;;;;;;238.83;83.33;;;;;;;;;;4966484;28;20939;-46
2023/10/11 01:40:32;;;;;;;237.27;84.30;;;;;;;;;;4974435;28;20430;-47
2023/10/11 01:42:59;;;;;;;247.87;93.30;;;;;;;;;;4973966;28;20411;-47
2023/10/11 01:45:25;;;;;;;234.30;81.67;;;;;;;;;;4974336;28;20415;-48
2023/10/11 01:47:51;;;;;;;236.93;83.33;;;;;;;;;;4974278;28;20412;-46
2023/10/11 01:50:17;;;;;;;236.77;82.90;;;;;;;;;;4974285;28;20497;-47
2023/10/11 01:52:47;;;;;;;242.17;90.07;;;;;;;;;;4973706;28;20472;-47
2023/10/11 01:55:14;;;;;;;233.60;81.13;;;;;;;;;;4974400;28;20453;-47
2023/10/11 01:57:45;;;;;;;236.47;81.47;;;;;;;;;;4973950;28;20419;-47
2023/10/11 02:00:13;;;;;;;237.20;84.00;;;;;;;;;;4974121;28;20410;-48
2023/10/11 02:02:44;;;;;;;237.60;81.67;;;;;;;;;;4973919;28;20422;-48
2023/10/11 02:05:11;;;;;;;238.87;85.17;;;;;;;;;;4973802;28;20767;-46
2023/10/11 02:07:39;;;;;;;234.57;80.03;;;;;;;;;;4974291;28;20426;-47
2023/10/11 02:10:05;;;;;;;234.77;80.90;;;;;;;;;;4973925;28;20464;-46
2023/10/11 02:12:31;;;;;;;234.97;80.23;;;;;;;;;;4973701;28;20429;-46
2023/10/11 02:14:57;;;;;;;232.27;76.50;;;;;;;;;;4973555;28;20933;-46
2023/10/11 02:17:23;;;;;;;237.23;82.17;;;;;;;;;;4973636;28;20808;-47
2023/10/11 02:19:53;;;;;;;236.60;81.17;;;;;;;;;;4973591;28;20836;-47
2023/10/11 02:22:19;;;;;;;232.20;76.27;;;;;;;;;;4973645;28;20449;-47
2023/10/11 02:24:45;;;;;;;234.63;81.13;;;;;;;;;;4973261;28;20929;-47
2023/10/11 02:27:17;;;;;;;233.10;78.50;;;;;;;;;;4973517;28;21004;-48
2023/10/11 02:29:44;;;;;;;237.93;85.63;;;;;;;;;;4973568;28;20457;-46
2023/10/11 02:32:11;;;;;;;230.27;74.93;;;;;;;;;;4973159;28;20403;-47
2023/10/11 02:34:37;;;;;;;233.07;79.63;;;;;;;;;;4972445;28;20492;-47
2023/10/11 02:37:04;;;;;;;238.80;87.27;;;;;;;;;;4973362;28;20492;-47
2023/10/11 02:39:42;;;;;;;232.73;78.80;;;;;;;;;;4973408;28;20450;-48
2023/10/11 02:42:09;;;;;;;233.10;79.93;;;;;;;;;;4973264;28;20432;-46
2023/10/11 02:44:39;;;;;;;235.20;81.73;;;;;;;;;;4972894;28;20819;-46
2023/10/11 02:47:06;;;;;;;233.03;77.30;;;;;;;;;;4973453;28;20580;-46
2023/10/11 02:49:33;;;;;;;232.33;78.03;;;;;;;;;;4973265;28;20926;-47
2023/10/11 02:52:08;;;;;;;238.07;85.33;;;;;;;;;;4973164;28;20491;-47
2023/10/11 02:54:38;;;;;;;229.97;75.10;;;;;;;;;;4972906;28;20803;-46
2023/10/11 02:57:09;;;;;;;231.60;76.10;;;;;;;;;;4973178;28;20418;-47
2023/10/11 02:59:35;;;;;;;234.40;81.10;;;;;;;;;;4972996;28;20980;-47
2023/10/11 03:02:01;;;;;;;231.87;76.33;;;;;;;;;;4973129;28;20508;-47
2023/10/11 03:04:28;;;;;;;232.87;77.97;;;;;;;;;;4972699;28;21449;-46
2023/10/11 03:06:54;;;;;;;234.13;79.63;;;;;;;;;;4972947;28;20497;-46
2023/10/11 03:09:20;;;;;;;231.63;75.93;;;;;;;;;;4970323;28;20891;-47
2023/10/11 03:11:46;;;;;;;231.03;76.63;;;;;;;;;;4972745;28;20412;-47
2023/10/11 03:14:12;;;;;;;231.57;74.83;;;;;;;;;;4972598;28;20424;-47
2023/10/11 03:16:42;;;;;;;230.70;76.63;;;;;;;;;;4972840;28;20422;-47
2023/10/11 03:19:10;;;;;;;230.83;75.77;;;;;;;;;;4972914;28;20414;-46
2023/10/11 03:21:36;;;;;;;234.43;79.63;;;;;;;;;;4972832;28;20509;-48
2023/10/11 03:24:06;;;;;;;233.57;80.43;;;;;;;;;;4972500;28;20428;-47
2023/10/11 03:26:33;;;;;;;235.27;78.37;;;;;;;;;;4972706;28;20453;-49
2023/10/11 03:28:59;;;;;;;233.90;78.23;;;;;;;;;;4972942;28;20397;-47
2023/10/11 03:31:29;;;;;;;233.67;77.10;;;;;;;;;;4972778;28;20418;-47
2023/10/11 03:34:00;;;;;;;232.93;78.60;;;;;;;;;;4972418;28;20456;-46
2023/10/11 03:36:43;;;;;;;232.90;76.20;;;;;;;;;;4972691;28;20475;-47
2023/10/11 03:39:09;;;;;;;231.17;75.77;;;;;;;;;;4972684;28;20471;-46
2023/10/11 03:41:45;;;;;;;233.53;77.30;;;;;;;;;;4972490;28;20560;-47
2023/10/11 03:44:16;;;;;;;229.50;75.77;;;;;;;;;;4973108;28;20444;-47
2023/10/11 03:46:47;;;;;;;230.83;76.13;;;;;;;;;;4976497;28;20495;-46
2023/10/11 03:51:48;;;;;;;234.43;79.47;;;;;;;;;;4968526;28;20775;-48
2023/10/11 03:54:22;;;;;;;231.90;77.70;;;;;;;;;;4976221;28;20429;-47
2023/10/11 03:56:52;;;;;;;233.57;79.80;;;;;;;;;;4975023;28;20420;-47
2023/10/11 03:59:19;;;;;;;231.07;75.93;;;;;;;;;;4976260;28;20408;-47
2023/10/11 04:01:45;;;;;;;234.60;81.00;;;;;;;;;;4968369;28;20413;-48
2023/10/11 04:04:11;;;;;;;232.73;78.97;;;;;;;;;;4975852;28;20482;-47
2023/10/11 04:06:37;;;;;;;228.60;75.57;;;;;;;;;;4975874;28;20458;-47
2023/10/11 04:09:03;;;;;;;231.37;75.57;;;;;;;;;;4976078;28;20479;-47
2023/10/11 04:11:50;;;;;;;230.17;74.33;;;;;;;;;;4976064;28;20413;-47
2023/10/11 04:14:24;;;;;;;232.47;77.53;;;;;;;;;;4972072;28;20445;-46
2023/10/11 04:16:52;;;;;;;230.00;74.37;;;;;;;;;;4976160;28;20502;-47
2023/10/11 04:19:21;;;;;;;229.03;76.43;;;;;;;;;;4975976;28;20423;-46
2023/10/11 04:24:19;;;;;;;235.13;79.57;;;;;;;;;;4972288;28;20530;-48
2023/10/11 04:26:54;;;;;;;232.07;76.23;;;;;;;;;;4975623;28;20518;-47
2023/10/11 04:29:23;;;;;;;233.80;78.57;;;;;;;;;;4976508;28;20419;-47
2023/10/11 04:34:38;;;;;;;232.17;75.47;;;;;;;;;;4975302;28;20488;-49
2023/10/11 04:37:16;;;;;;;229.63;74.80;;;;;;;;;;4975702;28;20419;-47
2023/10/11 04:39:56;;;;;;;232.57;77.47;;;;;;;;;;4975605;28;20495;-48
2023/10/11 04:42:27;;;;;;;232.80;78.90;;;;;;;;;;4975436;28;20412;-47
2023/10/11 04:44:57;;;;;;;234.37;81.03;;;;;;;;;;4975227;28;20515;-47
2023/10/11 04:47:23;;;;;;;230.70;75.03;;;;;;;;;;4975333;28;20485;-46
2023/10/11 04:49:52;;;;;;;234.07;78.07;;;;;;;;;;4975194;28;20418;-47
2023/10/11 04:52:35;;;;;;;235.07;81.30;;;;;;;;;;4975322;28;20422;-47
2023/10/11 04:55:12;;;;;;;233.33;79.07;;;;;;;;;;4969155;28;20457;-47
2023/10/11 04:57:49;;;;;;;233.27;77.07;;;;;;;;;;4974482;28;20478;-48
2023/10/11 05:00:18;;;;;;;230.63;75.83;;;;;;;;;;4975127;28;20499;-47
2023/10/11 05:02:51;;;;;;;230.60;75.57;;;;;;;;;;4974821;28;20471;-48
2023/10/11 05:05:19;;;;;;;232.57;78.67;;;;;;;;;;4975112;28;20916;-47
2023/10/11 05:07:46;;;;;;;233.07;77.97;;;;;;;;;;4967140;28;20416;-47
2023/10/11 05:12:57;;;;;;;232.17;75.73;;;;;;;;;;4974553;28;20423;-49
2023/10/11 05:15:29;;;;;;;234.27;80.27;;;;;;;;;;4975123;28;20447;-47
2023/10/11 05:18:06;;;;;;;233.03;80.13;;;;;;;;;;4974879;28;20417;-48
2023/10/11 05:23:11;;;;;;;232.77;77.77;;;;;;;;;;4974246;28;20532;-47
2023/10/11 05:25:40;;;;;;;232.57;77.77;;;;;;;;;;4974753;28;20417;-47
2023/10/11 05:31:01;;;;;;;236.77;80.60;;;;;;;;;;4966651;28;20794;-47
2023/10/11 05:36:39;;;;;;;232.77;80.87;;;;;;;;;;4974854;28;20421;-47
2023/10/11 05:52:47;;;;;;;240.67;85.07;;;;;;;;;;4966290;28;20918;-48
2023/10/11 05:55:13;;;;;;;234.77;78.97;;;;;;;;;;4974062;28;20416;-47
2023/10/11 05:57:42;;;;;;;231.10;75.13;;;;;;;;;;4974145;28;20495;-46
2023/10/11 06:00:18;;;;;;;233.00;79.30;;;;;;;;;;4974017;28;20413;-47
2023/10/11 06:02:44;;;;;;;240.63;86.93;;;;;;;;;;4973808;28;20427;-47
2023/10/11 06:05:11;;;;;;;233.33;79.47;;;;;;;;;;4973233;28;20429;-47
2023/10/11 06:07:37;;;;;;;235.07;82.87;;;;;;;;;;4973551;28;20470;-48
2023/10/11 06:10:07;;;;;;;238.60;86.20;;;;;;;;;;4970650;28;20427;-47
2023/10/11 06:12:33;;;;;;;233.60;82.07;;;;;;;;;;4971940;28;20422;-48
2023/10/11 06:15:15;;;;;;;234.67;80.07;;;;;;;;;;4972838;28;20426;-46
2023/10/11 06:17:42;;;;;;;232.17;82.03;;;;;;;;;;4970063;28;20436;-46
2023/10/11 06:20:27;;;;;;;241.30;89.70;;;;;;;;;;4972669;28;20453;-47
2023/10/11 06:22:53;;;;;;;237.37;83.30;;;;;;;;;;4965612;28;20465;-48
2023/10/11 06:28:13;;;;;;;237.03;85.40;;;;;;;;;;4967557;28;20959;-47
2023/10/11 06:30:51;;;;;;;237.30;88.27;;;;;;;;;;4971003;28;21133;-48
2023/10/11 06:33:21;;;;;;;235.37;84.27;;;;;;;;;;4970908;28;20453;-47
2023/10/11 06:35:49;;;;;;;235.97;85.97;;;;;;;;;;4968728;28;20405;-48
2023/10/11 06:38:15;;;;;;;236.40;83.67;;;;;;;;;;4972090;28;20409;-48
2023/10/11 06:41:07;;;;;;;240.40;88.97;;;;;;;;;;4971594;28;20456;-49
2023/10/11 06:43:27;;;;;;;234.77;84.00;;;;;;;;;;4972328;28;20985;-49
2023/10/11 06:45:53;;;;;;;234.90;86.33;;;;;;;;;;4973231;28;20560;-48
2023/10/11 06:48:22;;;;;;;233.10;82.60;;;;;;;;;;4973438;28;20556;-47
2023/10/11 06:50:52;;;;;;;234.30;82.77;;;;;;;;;;4972106;28;20413;-48
2023/10/11 06:53:20;;;;;;;232.77;83.57;;;;;;;;;;4972732;28;20803;-47
2023/10/11 06:55:50;;;;;;;231.63;81.67;;;;;;;;;;4973363;28;20434;-47
2023/10/11 06:58:16;;;;;;;232.63;81.70;;;;;;;;;;4973182;28;20413;-47
2023/10/11 07:00:45;;;;;;;232.57;81.50;;;;;;;;;;4973000;28;20421;-47
2023/10/11 07:05:48;;;;;;;234.03;86.27;;;;;;;;;;4965284;28;20938;-46
2023/10/11 07:08:17;;;;;;;234.53;86.63;;;;;;;;;;4973069;28;20409;-47
2023/10/11 07:16:20;;;;;;;231.17;80.17;;;;;;;;;;4972910;28;20979;-47
2023/10/11 07:18:53;;;;;;;236.57;87.77;;;;;;;;;;4972368;28;20509;-47
2023/10/11 07:21:20;;;;;;;235.77;88.00;;;;;;;;;;4972821;28;20431;-48
2023/10/11 07:23:55;;;;;;;233.40;83.67;;;;;;;;;;4971330;28;20514;-48
2023/10/11 07:28:59;;;;;;;235.07;87.57;;;;;;;;;;4972964;28;20448;-47
2023/10/11 07:31:32;;;;;;;235.97;88.47;;;;;;;;;;4972861;28;20410;-48
2023/10/11 07:34:05;;;;;;;235.03;86.03;;;;;;;;;;4972409;28;20462;-47
2023/10/11 07:36:32;;;;;;;233.93;84.10;;;;;;;;;;4972765;28;20426;-48
2023/10/11 07:39:00;;;;;;;237.03;89.17;;;;;;;;;;4972781;28;20474;-48
2023/10/11 07:41:28;;;;;;;240.70;92.90;;;;;;;;;;4972736;28;20431;-48
2023/10/11 07:43:56;;;;;;;237.87;92.10;;;;;;;;;;4972402;28;20807;-48
2023/10/11 07:46:23;;;;;;;237.63;89.63;;;;;;;;;;4972682;28;20973;-49
2023/10/11 07:48:54;;;;;;;235.33;88.90;;;;;;;;;;4972663;28;20502;-47
2023/10/11 07:51:20;;;;;;;232.60;83.97;;;;;;;;;;4972720;28;20467;-47
2023/10/11 07:53:46;;;;;;;236.17;88.73;;;;;;;;;;4972344;28;20439;-49
2023/10/11 07:56:20;;;;;;;237.37;90.80;;;;;;;;;;4972637;28;20747;-46
2023/10/11 07:58:46;;;;;;;234.07;87.13;;;;;;;;;;4964658;28;20426;-46
2023/10/11 08:01:42;;;;;;;235.67;88.00;;;;;;;;;;4972542;28;20423;-46
2023/10/11 08:04:08;;;;;;;235.60;89.53;;;;;;;;;;4966179;28;20453;-47
2023/10/11 08:06:39;;;;;;;236.70;90.03;;;;;;;;;;4971064;28;20460;-49
2023/10/11 08:09:06;;;;;;;233.00;84.07;;;;;;;;;;4972716;28;20416;-47
2023/10/11 08:11:45;;;;;;;235.77;89.10;;;;;;;;;;4972463;28;20409;-47
2023/10/11 08:14:21;;;;;;;233.83;85.03;;;;;;;;;;4972183;28;20431;-47
2023/10/11 08:16:49;;;;;;;235.00;85.80;;;;;;;;;;4970434;28;20411;-48
2023/10/11 08:19:15;;;;;;;235.83;87.30;;;;;;;;;;4972211;28;20827;-48
2023/10/11 08:21:47;;;;;;;235.93;89.47;;;;;;;;;;4972252;28;20417;-47
2023/10/11 08:24:15;;;;;;;235.27;90.43;;;;;;;;;;4971969;28;20448;-47
2023/10/11 08:26:45;;;;;;;237.37;89.70;;;;;;;;;;4972248;28;20508;-47
2023/10/11 08:29:27;;;;;;;230.77;81.53;;;;;;;;;;4972345;28;20861;-48
2023/10/11 08:31:56;;;;;;;236.10;90.67;;;;;;;;;;4967056;28;20407;-47
2023/10/11 08:34:22;;;;;;;233.23;85.27;;;;;;;;;;4975336;28;20937;-46
2023/10/11 08:36:48;;;;;;;234.60;88.03;;;;;;;;;;4975725;28;20406;-47
2023/10/11 08:39:14;;;;;;;239.00;96.10;;;;;;;;;;4975599;28;20428;-46
2023/10/11 08:41:43;;;;;;;237.87;88.37;;;;;;;;;;4974407;28;20935;-46
2023/10/11 08:44:15;;;;;;;239.87;95.40;;;;;;;;;;4975133;28;20971;-47
2023/10/11 08:46:49;;;;;;;231.87;85.77;;;;;;;;;;4975492;28;20515;-46
2023/10/11 08:49:17;;;;;;;239.97;95.43;;;;;;;;;;4975494;28;20937;-47
2023/10/11 08:51:43;;;;;;;236.33;89.90;;;;;;;;;;4975674;28;20959;-46
2023/10/11 08:54:12;;;;;;;232.53;87.07;;;;;;;;;;4975104;28;20425;-48
2023/10/11 08:56:43;;;;;;;240.50;99.70;;;;;;;;;;4975258;28;20423;-48
2023/10/11 08:59:15;;;;;;;237.27;93.13;;;;;;;;;;4980400;28;20466;-48
2023/10/11 09:01:45;;;;;;;238.07;94.20;;;;;;;;;;4975218;28;20421;-48
2023/10/11 09:04:13;;;;;;;240.97;99.83;;;;;;;;;;4974482;28;20519;-46
2023/10/11 09:06:42;;;;;;;239.63;96.23;;;;;;;;;;4975014;28;20903;-47
2023/10/11 09:09:14;;;;;;;236.57;93.17;;;;;;;;;;4975145;28;20422;-47
2023/10/11 09:11:52;;;;;;;242.07;102.33;;;;;;;;;;4975267;28;20411;-47
2023/10/11 09:14:26;;;;;;;240.20;97.63;;;;;;;;;;4974788;28;20439;-47
2023/10/11 09:16:57;;;;;;;241.67;101.10;;;;;;;;;;4975034;28;20444;-46
2023/10/11 09:19:25;;;;;;;242.00;107.33;;;;;;;;;;4974797;28;20413;-48
2023/10/11 09:22:01;;;;;;;245.27;111.63;;;;;;;;;;4975031;28;20417;-49
2023/10/11 09:24:44;;;;;;;242.87;109.10;;;;;;;;;;4974388;28;20448;-49
2023/10/11 09:29:46;;;;;;;247.20;111.40;;;;;;;;;;4972644;28;20500;-49
2023/10/11 09:32:13;;;;;;;241.97;107.20;;;;;;;;;;4970555;28;20848;-48
2023/10/11 09:34:42;;;;;;;244.70;113.87;;;;;;;;;;4972321;28;20445;-47
2023/10/11 09:37:12;;;;;;;242.40;109.43;;;;;;;;;;4973444;28;20436;-47
2023/10/11 09:39:38;;;;;;;242.80;111.60;;;;;;;;;;4975850;28;20421;-48
2023/10/11 09:42:04;;;;;;;244.80;113.40;;;;;;;;;;4972746;28;20558;-47
2023/10/11 09:44:37;;;;;;;247.10;117.37;;;;;;;;;;4973305;28;20448;-47
2023/10/11 09:47:05;;;;;;;244.00;112.73;;;;;;;;;;4973218;28;20468;-47
2023/10/11 09:49:41;;;;;;;244.83;114.77;;;;;;;;;;4973509;28;20413;-47
2023/10/11 09:52:07;;;;;;;244.13;115.93;;;;;;;;;;4971399;28;20475;-48
2023/10/11 09:54:34;;;;;;;243.60;114.07;;;;;;;;;;4973689;28;20447;-47
2023/10/11 09:57:20;;;;;;;249.63;120.83;;;;;;;;;;4972599;28;20423;-48
2023/10/11 09:59:49;;;;;;;241.37;112.23;;;;;;;;;;4972010;28;20432;-47
2023/10/11 10:02:21;;;;;;;240.57;110.07;;;;;;;;;;4973170;28;20516;-48
2023/10/11 10:04:50;;;;;;;239.97;109.43;;;;;;;;;;4972216;28;20452;-47
2023/10/11 10:07:25;;;;;;;241.93;114.53;;;;;;;;;;4973493;28;20531;-48
2023/10/11 10:09:52;;;;;;;243.50;113.90;;;;;;;;;;4969950;28;20431;-48
2023/10/11 10:12:22;;;;;;;240.80;111.40;;;;;;;;;;4971940;28;20913;-47
2023/10/11 10:15:28;;;;;;;241.97;115.10;;;;;;;;;;4965521;28;20429;-47
2023/10/11 10:17:57;;;;;;;241.47;111.97;;;;;;;;;;4973880;28;20404;-47
2023/10/11 10:20:33;;;;;;;240.57;114.07;;;;;;;;;;4971566;28;20397;-48
2023/10/11 10:23:17;;;;;;;247.57;118.43;;;;;;;;;;4954255;28;20428;-48
2023/10/11 10:25:48;;;;;;;240.53;111.87;;;;;;;;;;4954519;29;20406;-47
2023/10/11 10:28:32;;;;;;;240.77;114.43;;;;;;;;;;4972862;28;20475;-47
2023/10/11 10:31:09;;;;;;;238.77;112.33;;;;;;;;;;4974557;28;20499;-47
2023/10/11 10:33:35;;;;;;;242.63;120.97;;;;;;;;;;4959356;28;20433;-47
2023/10/11 10:36:53;;;;;;;241.83;117.33;;;;;;;;;;4964127;28;20500;-48
2023/10/11 10:41:39;;;;;;;242.80;118.30;;;;;;;;;;4973410;28;20421;-47
2023/10/11 10:44:05;;;;;;;244.53;119.83;;;;;;;;;;4973108;28;20471;-48
2023/10/11 10:46:31;;;;;;;241.60;115.00;;;;;;;;;;4973259;28;20539;-47
2023/10/11 10:48:57;;;;;;;244.30;118.00;;;;;;;;;;4954095;29;20481;-48
2023/10/11 10:51:28;;;;;;;243.47;116.93;;;;;;;;;;4969814;28;20897;-47
2023/10/11 10:53:54;;;;;;;242.40;114.77;;;;;;;;;;4972176;28;20479;-46
2023/10/11 10:56:20;;;;;;;242.43;119.70;;;;;;;;;;4971078;28;20436;-47
2023/10/11 10:58:46;;;;;;;243.77;119.13;;;;;;;;;;4962232;28;20428;-47
2023/10/11 11:01:12;;;;;;;241.97;114.57;;;;;;;;;;4972795;28;20433;-49
2023/10/11 11:03:41;;;;;;;241.83;118.83;;;;;;;;;;4972678;28;20460;-47
2023/10/11 11:06:11;;;;;;;241.27;119.37;;;;;;;;;;4972839;28;20460;-47
2023/10/11 11:08:39;;;;;;;241.03;115.17;;;;;;;;;;4960505;28;20449;-47
2023/10/11 11:13:50;;;;;;;246.27;128.57;;;;;;;;;;4972603;28;20471;-47
2023/10/11 11:16:17;;;;;;;241.93;118.60;;;;;;;;;;4972863;28;20413;-47
2023/10/11 11:18:43;;;;;;;245.30;129.60;;;;;;;;;;4973265;28;20405;-48
2023/10/11 11:21:25;;;;;;;249.93;134.87;;;;;;;;;;4954140;28;20414;-48
2023/10/11 11:23:51;;;;;;;247.23;128.97;;;;;;;;;;4970255;28;20508;-47
2023/10/11 11:26:22;;;;;;;245.50;125.67;;;;;;;;;;4958304;28;20469;-47
2023/10/11 11:28:51;;;;;;;243.70;125.97;;;;;;;;;;4960806;28;20429;-47
2023/10/11 11:34:27;;;;;;;244.03;127.90;;;;;;;;;;4971571;28;20436;-47
2023/10/11 11:36:41;;;;;;;249.20;132.17;;;;;;;;;;4968716;28;20836;-46
2023/10/11 11:39:36;;;;;;;246.03;132.50;;;;;;;;;;4971640;28;20421;-48
2023/10/11 11:42:36;;;;;;;243.70;129.73;;;;;;;;;;4952473;28;20837;-48
2023/10/11 11:44:55;;;;;;;244.90;134.27;;;;;;;;;;4957478;28;20952;-47
2023/10/11 11:47:21;;;;;;;245.83;138.10;;;;;;;;;;4972530;28;20467;-47
2023/10/11 11:49:47;;;;;;;243.60;128.43;;;;;;;;;;4970253;28;20433;-49
2023/10/11 11:52:16;;;;;;;244.90;134.27;;;;;;;;;;4969738;28;20429;-49
2023/10/11 11:54:43;;;;;;;245.00;133.30;;;;;;;;;;4971997;28;20483;-47
2023/10/11 11:57:09;;;;;;;247.37;135.50;;;;;;;;;;4972222;28;20424;-46
2023/10/11 11:59:35;;;;;;;240.33;126.50;;;;;;;;;;4972536;28;20790;-48
2023/10/11 12:02:01;;;;;;;245.07;136.50;;;;;;;;;;4972699;28;20899;-49
2023/10/11 12:04:31;;;;;;;242.13;133.53;;;;;;;;;;4972307;28;20968;-47
2023/10/11 12:06:58;;;;;;;254.43;144.93;;;;;;;;;;4973388;28;21201;-48
2023/10/11 12:09:31;;;;;;;247.90;134.70;;;;;;;;;;4973845;28;20467;-48
2023/10/11 12:12:02;;;;;;;242.93;127.93;;;;;;;;;;4974191;28;20409;-48
2023/10/11 12:14:28;;;;;;;243.50;131.03;;;;;;;;;;4975884;28;20776;-47
2023/10/11 12:16:55;;;;;;;244.27;134.17;;;;;;;;;;4975719;28;20407;-49
2023/10/11 12:19:22;;;;;;;243.80;132.83;;;;;;;;;;4975997;28;20413;-49
2023/10/11 12:21:49;;;;;;;248.57;140.07;;;;;;;;;;4975901;28;20479;-49
2023/10/11 12:24:15;;;;;;;245.77;136.00;;;;;;;;;;4975599;28;20468;-49
2023/10/11 12:26:41;;;;;;;244.20;133.70;;;;;;;;;;4975619;28;20546;-49
2023/10/11 12:29:08;;;;;;;244.10;134.70;;;;;;;;;;4975920;28;20402;-48
2023/10/11 12:31:38;;;;;;;240.63;125.17;;;;;;;;;;4975542;28;20417;-48
2023/10/11 12:34:04;;;;;;;246.63;136.17;;;;;;;;;;4975712;28;20789;-48
2023/10/11 12:36:30;;;;;;;241.30;126.43;;;;;;;;;;4975620;28;20428;-48
2023/10/11 12:38:57;;;;;;;243.83;127.73;;;;;;;;;;4975607;28;20432;-50
2023/10/11 12:41:23;;;;;;;242.50;126.63;;;;;;;;;;4975463;28;20415;-48
2023/10/11 12:43:49;;;;;;;244.23;133.20;;;;;;;;;;4975274;28;20515;-48
2023/10/11 12:46:18;;;;;;;242.50;126.23;;;;;;;;;;4975236;28;20503;-48
2023/10/11 12:48:44;;;;;;;242.43;130.17;;;;;;;;;;4959914;28;20425;-49
2023/10/11 12:51:10;;;;;;;249.60;132.97;;;;;;;;;;4966514;28;20781;-48
2023/10/11 12:53:36;;;;;;;244.17;129.43;;;;;;;;;;4973611;28;20520;-48
2023/10/11 12:56:02;;;;;;;242.50;126.53;;;;;;;;;;4975402;28;20941;-48
2023/10/11 12:58:38;;;;;;;244.33;129.70;;;;;;;;;;4974708;28;20519;-47
2023/10/11 13:01:11;;;;;;;242.53;130.83;;;;;;;;;;4972287;28;20436;-48
2023/10/11 13:03:40;;;;;;;243.10;128.00;;;;;;;;;;4974101;28;20425;-48
2023/10/11 13:06:11;;;;;;;243.80;130.90;;;;;;;;;;4975083;28;20492;-50
2023/10/11 13:08:40;;;;;;;241.33;126.37;;;;;;;;;;4975032;28;20798;-48
2023/10/11 13:11:10;;;;;;;239.37;125.67;;;;;;;;;;4975200;28;20532;-49
2023/10/11 13:13:37;;;;;;;241.43;127.23;;;;;;;;;;4974649;28;20437;-49
2023/10/11 13:16:06;;;;;;;241.03;126.20;;;;;;;;;;4975122;28;20401;-48
2023/10/11 13:18:33;;;;;;;243.17;130.00;;;;;;;;;;4972346;28;20421;-48
2023/10/11 13:20:59;;;;;;;244.47;125.67;;;;;;;;;;4973839;28;20417;-48
2023/10/11 13:23:29;;;;;;;249.10;132.70;;;;;;;;;;4973486;28;20443;-50
2023/10/11 13:25:59;;;;;;;241.50;123.90;;;;;;;;;;4973755;28;20428;-49
2023/10/11 13:28:26;;;;;;;242.03;122.70;;;;;;;;;;4973669;28;20416;-49
2023/10/11 13:30:52;;;;;;;241.63;125.13;;;;;;;;;;4974639;28;20405;-49
2023/10/11 13:33:20;;;;;;;245.37;130.03;;;;;;;;;;4974442;28;20433;-49
2023/10/11 13:35:47;;;;;;;244.20;127.70;;;;;;;;;;4974791;28;20504;-50
2023/10/11 13:38:17;;;;;;;243.03;125.10;;;;;;;;;;4974583;28;20495;-49
2023/10/11 13:40:43;;;;;;;244.10;125.83;;;;;;;;;;4974630;28;20436;-49
2023/10/11 13:43:09;;;;;;;241.87;122.70;;;;;;;;;;4974081;28;20472;-48
2023/10/11 13:45:42;;;;;;;245.13;128.27;;;;;;;;;;4974390;28;20421;-50
2023/10/11 13:48:11;;;;;;;244.97;126.43;;;;;;;;;;4975976;28;20432;-49
2023/10/11 13:50:41;;;;;;;244.07;126.23;;;;;;;;;;4973218;28;20413;-49
2023/10/11 13:53:13;;;;;;;237.87;117.83;;;;;;;;;;4971439;28;20467;-49
2023/10/11 13:55:42;;;;;;;243.63;125.90;;;;;;;;;;4972799;28;20795;-49
2023/10/11 13:58:11;;;;;;;245.90;127.77;;;;;;;;;;4973023;28;20927;-49
2023/10/11 14:05:40;;;;;;;244.37;120.90;;;;;;;;;;4973994;28;20528;-48
2023/10/11 14:08:24;;;;;;;251.33;129.67;;;;;;;;;;4970954;28;20518;-48
2023/10/11 14:10:51;;;;;;;250.67;128.57;;;;;;;;;;4968330;28;21049;-48
2023/10/11 14:13:24;;;;;;;244.10;120.20;;;;;;;;;;4971703;28;20998;-49
2023/10/11 14:15:50;;;;;;;245.50;122.03;;;;;;;;;;4973646;28;20444;-48
2023/10/11 14:18:16;;;;;;;242.70;113.87;;;;;;;;;;4973780;28;20924;-48
2023/10/11 14:20:49;;;;;;;245.03;117.30;;;;;;;;;;4973973;28;20413;-48
2023/10/11 14:23:15;;;;;;;244.73;112.90;;;;;;;;;;4973002;28;20444;-49
2023/10/11 14:25:41;;;;;;;242.03;110.33;;;;;;;;;;4973580;28;20413;-49
2023/10/11 14:28:07;;;;;;;242.87;110.67;;;;;;;;;;4970888;28;20523;-47
2023/10/11 14:30:36;;;;;;;245.33;114.73;;;;;;;;;;4971702;28;20448;-47
2023/10/11 14:33:08;;;;;;;249.37;117.53;;;;;;;;;;4971471;28;20471;-49
2023/10/11 14:35:38;;;;;;;241.83;111.47;;;;;;;;;;4969726;28;20432;-49
2023/10/11 14:38:04;;;;;;;246.83;111.70;;;;;;;;;;4969476;28;20424;-48
2023/10/11 14:40:30;;;;;;;242.70;113.53;;;;;;;;;;4973143;28;20683;-47
2023/10/11 14:42:56;;;;;;;252.80;120.83;;;;;;;;;;4969611;28;21170;-48
2023/10/11 14:45:23;;;;;;;243.07;110.63;;;;;;;;;;4970892;28;20971;-48
2023/10/11 14:47:50;;;;;;;248.17;120.67;;;;;;;;;;4973127;28;20464;-49
2023/10/11 14:50:22;;;;;;;239.67;106.60;;;;;;;;;;4979036;28;20476;-49
2023/10/11 14:52:48;;;;;;;242.97;108.23;;;;;;;;;;4972972;28;20944;-47
2023/10/11 14:55:20;;;;;;;243.43;108.60;;;;;;;;;;4973047;28;20401;-48
2023/10/11 14:57:50;;;;;;;239.17;101.93;;;;;;;;;;4973487;28;20450;-47
2023/10/11 15:00:22;;;;;;;243.83;112.27;;;;;;;;;;4973328;28;20435;-47
2023/10/11 15:02:48;;;;;;;244.30;107.43;;;;;;;;;;4972844;28;20416;-47
2023/10/11 15:05:17;;;;;;;244.43;110.13;;;;;;;;;;4973125;28;20417;-48
2023/10/11 15:07:45;;;;;;;241.07;104.00;;;;;;;;;;4972842;28;21096;-48
2023/10/11 15:10:12;;;;;;;241.00;104.93;;;;;;;;;;4973020;28;20423;-49
2023/10/11 15:12:41;;;;;;;241.10;105.60;;;;;;;;;;4972854;28;20478;-49
2023/10/11 15:15:07;;;;;;;243.70;111.27;;;;;;;;;;4972855;28;20425;-46